Time;durP1;ratioP1;P1;durP2;ratioP2;P2;SDS_P1;SDS_P2;PMS_P1;PMS_P2;Temp;Humidity;BMP_temperature;BMP_pressure;BME280_temperature;BME280_humidity;BME280_pressure;Samples;Min_cycle;Max_cycle;Signal;HPM_P1;HPM_P2
2020/12/01 00:01:20;;;;;;;;;;;5.10;99.90;;;;;;5157702;27;19915;-80
2020/12/01 00:03:45;;;;;;;;;;;5.10;99.90;;;;;;5157592;27;19934;-80
2020/12/01 00:06:11;;;;;;;;;;;5.10;99.90;;;;;;5138327;27;19912;-80
2020/12/01 00:08:37;;;;;;;;;;;5.10;99.90;;;;;;5135300;27;19911;-80
2020/12/01 00:11:04;;;;;;;;;;;5.10;99.90;;;;;;5156598;27;19915;-80
2020/12/01 00:13:32;;;;;;;;;;;5.10;99.90;;;;;;5157490;27;19920;-80
2020/12/01 00:15:58;;;;;;;;;;;5.10;99.90;;;;;;5158066;27;20350;-79
2020/12/01 00:18:23;;;;;;;;;;;5.10;99.90;;;;;;5138762;27;19954;-79
2020/12/01 00:20:49;;;;;;;;;;;5.10;99.90;;;;;;5137065;27;19933;-79
2020/12/01 00:23:14;;;;;;;;;;;5.10;99.90;;;;;;5145461;27;19908;-79
2020/12/01 00:25:39;;;;;;;;;;;5.10;99.90;;;;;;5138956;27;19916;-79
2020/12/01 00:28:05;;;;;;;;;;;5.10;99.90;;;;;;5141260;27;19911;-79
2020/12/01 00:30:30;;;;;;;;;;;5.10;99.90;;;;;;5142025;27;19915;-80
2020/12/01 00:32:56;;;;;;;;;;;5.10;99.90;;;;;;5142835;27;19979;-80
2020/12/01 00:35:24;;;;;;;;;;;5.10;99.90;;;;;;5140247;27;19912;-80
2020/12/01 00:37:50;;;;;;;;;;;5.10;99.90;;;;;;5140992;27;19999;-80
2020/12/01 00:40:16;;;;;;;;;;;5.10;99.90;;;;;;5141642;27;19911;-80
2020/12/01 00:42:41;;;;;;;;;;;5.20;99.90;;;;;;5141402;27;20048;-80
2020/12/01 00:45:07;;;;;;;;;;;5.20;99.90;;;;;;5139867;27;19947;-80
2020/12/01 00:47:33;;;;;;;;;;;5.20;99.90;;;;;;5140582;27;19955;-80
2020/12/01 00:49:58;;;;;;;;;;;5.20;99.90;;;;;;5142192;27;20328;-80
2020/12/01 00:52:24;;;;;;;;;;;5.20;99.90;;;;;;5141647;27;19951;-80
2020/12/01 00:54:49;;;;;;;;;;;5.20;99.90;;;;;;5141222;27;19953;-80
2020/12/01 00:57:15;;;;;;;;;;;5.30;99.90;;;;;;5141755;27;19911;-80
2020/12/01 00:59:40;;;;;;;;;;;5.30;99.90;;;;;;5140793;27;19915;-80
2020/12/01 01:02:06;;;;;;;;;;;5.30;99.90;;;;;;5141931;27;20363;-80
2020/12/01 01:04:31;;;;;;;;;;;5.30;99.90;;;;;;5119002;27;20726;-80
2020/12/01 01:06:57;;;;;;;;;;;5.30;99.90;;;;;;5141010;27;19907;-80
2020/12/01 01:09:22;;;;;;;;;;;5.40;99.90;;;;;;5119821;27;19976;-80
2020/12/01 01:11:48;;;;;;;;;;;5.40;99.90;;;;;;5120664;28;19916;-80
2020/12/01 01:14:13;;;;;;;;;;;5.40;99.90;;;;;;5138612;27;19919;-80
2020/12/01 01:16:42;;;;;;;;;;;5.40;99.90;;;;;;5147985;27;19921;-79
2020/12/01 01:19:09;;;;;;;;;;;5.40;99.90;;;;;;5139975;27;19896;-80
2020/12/01 01:21:38;;;;;;;;;;;5.40;99.90;;;;;;5132422;28;19985;-81
2020/12/01 01:24:03;;;;;;;;;;;5.40;99.90;;;;;;5137930;27;19919;-78
2020/12/01 01:26:29;;;;;;;;;;;5.50;99.90;;;;;;5140914;27;19960;-80
2020/12/01 01:28:54;;;;;;;;;;;5.50;99.90;;;;;;5121117;27;19918;-80
2020/12/01 01:31:20;;;;;;;;;;;5.50;99.90;;;;;;5140162;27;20336;-80
2020/12/01 01:33:45;;;;;;;;;;;5.50;99.90;;;;;;5140222;27;19912;-80
2020/12/01 01:36:11;;;;;;;;;;;5.50;99.90;;;;;;5139768;27;19908;-80
2020/12/01 01:38:36;;;;;;;;;;;5.50;99.90;;;;;;5139649;27;19919;-82
2020/12/01 01:41:02;;;;;;;;;;;5.60;99.90;;;;;;5140294;27;19957;-82
2020/12/01 01:43:27;;;;;;;;;;;5.60;99.90;;;;;;5140264;27;20389;-82
2020/12/01 01:45:52;;;;;;;;;;;5.60;99.90;;;;;;5141046;27;19916;-82
2020/12/01 01:48:30;;;;;;;;;;;5.60;99.90;;;;;;5121672;27;19964;-80
2020/12/01 01:51:15;;;;;;;;;;;5.60;99.90;;;;;;5140840;27;19916;-80
2020/12/01 01:53:44;;;;;;;;;;;5.60;99.90;;;;;;5139967;27;19983;-80
2020/12/01 01:56:11;;;;;;;;;;;5.60;99.90;;;;;;5140172;27;20002;-80
2020/12/01 01:58:38;;;;;;;;;;;5.70;99.90;;;;;;5139753;27;19915;-81
2020/12/01 02:01:05;;;;;;;;;;;5.70;99.90;;;;;;5138748;27;19959;-79
2020/12/01 02:03:33;;;;;;;;;;;5.70;99.90;;;;;;5121967;27;19954;-80
2020/12/01 02:05:59;;;;;;;;;;;5.70;99.90;;;;;;5132562;27;19920;-80
2020/12/01 02:08:25;;;;;;;;;;;5.80;99.90;;;;;;5139638;27;19998;-80
2020/12/01 02:10:52;;;;;;;;;;;5.80;99.90;;;;;;5120161;27;20397;-80
2020/12/01 02:13:19;;;;;;;;;;;5.80;99.90;;;;;;5122120;27;19918;-80
2020/12/01 02:15:45;;;;;;;;;;;5.80;99.90;;;;;;5138694;27;19912;-80
2020/12/01 02:18:11;;;;;;;;;;;5.80;99.90;;;;;;5139211;27;20006;-80
2020/12/01 02:20:36;;;;;;;;;;;5.80;99.90;;;;;;5140467;27;19912;-80
2020/12/01 02:23:03;;;;;;;;;;;5.80;99.90;;;;;;5139663;27;20378;-80
2020/12/01 02:25:28;;;;;;;;;;;5.90;99.90;;;;;;5139760;27;19918;-80
2020/12/01 02:27:56;;;;;;;;;;;5.90;99.90;;;;;;5140712;27;19907;-80
2020/12/01 02:30:21;;;;;;;;;;;6.00;99.90;;;;;;5120689;27;19918;-80
2020/12/01 02:32:47;;;;;;;;;;;6.00;99.90;;;;;;5121829;27;19911;-80
2020/12/01 02:35:12;;;;;;;;;;;6.00;99.90;;;;;;5140499;27;19916;-80
2020/12/01 02:37:40;;;;;;;;;;;6.10;99.90;;;;;;5140024;27;19918;-80
2020/12/01 02:40:07;;;;;;;;;;;6.10;99.90;;;;;;5137946;27;19912;-80
2020/12/01 02:42:32;;;;;;;;;;;6.10;99.90;;;;;;5139243;27;20294;-80
2020/12/01 02:44:58;;;;;;;;;;;6.20;99.90;;;;;;5139143;27;19911;-80
2020/12/01 02:47:24;;;;;;;;;;;6.20;99.90;;;;;;5138786;27;19922;-80
2020/12/01 02:49:50;;;;;;;;;;;6.20;99.90;;;;;;5139362;27;19994;-80
2020/12/01 02:52:15;;;;;;;;;;;6.20;99.90;;;;;;5138526;27;19992;-80
2020/12/01 02:54:41;;;;;;;;;;;6.20;99.90;;;;;;5121090;27;19918;-80
2020/12/01 02:57:06;;;;;;;;;;;6.20;99.90;;;;;;5140300;27;20469;-80
2020/12/01 02:59:32;;;;;;;;;;;6.20;99.90;;;;;;5120341;27;19918;-80
2020/12/01 03:01:57;;;;;;;;;;;6.20;99.90;;;;;;5139927;27;19942;-80
2020/12/01 03:04:23;;;;;;;;;;;6.30;99.90;;;;;;5137341;27;20010;-82
2020/12/01 03:06:48;;;;;;;;;;;6.30;99.90;;;;;;5121407;27;19907;-80
2020/12/01 03:09:16;;;;;;;;;;;6.30;99.90;;;;;;5140633;28;19918;-80
2020/12/01 03:11:42;;;;;;;;;;;6.30;99.90;;;;;;5139991;28;19919;-80
2020/12/01 03:14:07;;;;;;;;;;;6.40;99.90;;;;;;5138755;28;20009;-79
2020/12/01 03:16:33;;;;;;;;;;;6.40;99.90;;;;;;5139579;28;19922;-80
2020/12/01 03:18:58;;;;;;;;;;;6.40;99.90;;;;;;5138691;28;19912;-80
2020/12/01 03:21:24;;;;;;;;;;;6.50;99.90;;;;;;5138245;28;19937;-80
2020/12/01 03:23:49;;;;;;;;;;;6.50;99.90;;;;;;5146781;27;19947;-79
2020/12/01 03:26:16;;;;;;;;;;;6.50;99.90;;;;;;5122448;28;19919;-80
2020/12/01 03:28:45;;;;;;;;;;;6.50;99.90;;;;;;5139157;27;19963;-80
2020/12/01 03:31:11;;;;;;;;;;;6.60;99.90;;;;;;5139276;28;19980;-80
2020/12/01 03:33:36;;;;;;;;;;;6.60;99.90;;;;;;5120246;28;19918;-81
2020/12/01 03:36:02;;;;;;;;;;;6.60;99.90;;;;;;5139562;28;19911;-81
2020/12/01 03:38:27;;;;;;;;;;;6.60;99.90;;;;;;5138845;28;19919;-81
2020/12/01 03:40:53;;;;;;;;;;;6.60;99.90;;;;;;5139933;28;19923;-81
2020/12/01 03:43:18;;;;;;;;;;;6.60;99.90;;;;;;5120717;28;19911;-81
2020/12/01 03:45:44;;;;;;;;;;;6.60;99.90;;;;;;5120648;28;19926;-80
2020/12/01 03:48:10;;;;;;;;;;;6.60;99.90;;;;;;5139440;28;20372;-81
2020/12/01 03:50:35;;;;;;;;;;;6.60;99.90;;;;;;5138368;28;19916;-81
2020/12/01 03:53:01;;;;;;;;;;;6.60;99.90;;;;;;5138129;28;20285;-81
2020/12/01 03:55:26;;;;;;;;;;;6.60;99.90;;;;;;5138276;28;20298;-81
2020/12/01 03:57:53;;;;;;;;;;;6.60;99.90;;;;;;5139254;27;19933;-81
2020/12/01 04:00:23;;;;;;;;;;;6.60;99.90;;;;;;5144494;27;19919;-81
2020/12/01 04:02:48;;;;;;;;;;;6.70;99.90;;;;;;5143040;27;19915;-81
2020/12/01 04:05:15;;;;;;;;;;;6.60;99.90;;;;;;5123898;27;20006;-81
2020/12/01 04:07:41;;;;;;;;;;;6.60;99.90;;;;;;5143572;27;19943;-81
2020/12/01 04:10:07;;;;;;;;;;;6.60;99.90;;;;;;5144808;27;19932;-81
2020/12/01 04:12:33;;;;;;;;;;;6.70;99.90;;;;;;5124827;27;19940;-80
2020/12/01 04:15:00;;;;;;;;;;;6.70;99.90;;;;;;5124074;27;20018;-81
2020/12/01 04:17:26;;;;;;;;;;;6.60;99.90;;;;;;5142538;27;19907;-81
2020/12/01 04:19:51;;;;;;;;;;;6.70;99.90;;;;;;5143978;27;19918;-81
2020/12/01 04:22:17;;;;;;;;;;;6.70;99.90;;;;;;5123380;27;19974;-81
2020/12/01 04:24:42;;;;;;;;;;;6.70;99.90;;;;;;5140202;27;19922;-81
2020/12/01 04:27:08;;;;;;;;;;;6.70;99.90;;;;;;5131908;27;19908;-81
2020/12/01 04:29:33;;;;;;;;;;;6.70;99.90;;;;;;5138534;27;19916;-81
2020/12/01 04:31:59;;;;;;;;;;;6.70;99.90;;;;;;5127195;27;19915;-81
2020/12/01 04:34:24;;;;;;;;;;;6.80;99.90;;;;;;5130370;27;20378;-81
2020/12/01 04:36:50;;;;;;;;;;;6.80;99.90;;;;;;5139664;27;19981;-83
2020/12/01 04:39:15;;;;;;;;;;;6.80;99.90;;;;;;5159802;27;19952;-82
2020/12/01 04:41:41;;;;;;;;;;;6.80;99.90;;;;;;5128492;27;19998;-81
2020/12/01 04:44:16;;;;;;;;;;;6.80;99.90;;;;;;5142555;27;19915;-81
2020/12/01 04:46:42;;;;;;;;;;;6.80;99.90;;;;;;5141534;27;19908;-81
2020/12/01 04:49:19;;;;;;;;;;;6.80;99.90;;;;;;5142817;27;19954;-81
2020/12/01 04:52:03;;;;;;;;;;;6.80;99.90;;;;;;5141474;27;20438;-81
2020/12/01 04:57:22;;;;;;;;;;;6.70;99.90;;;;;;1002539;26;20340;-80
2020/12/01 04:59:55;;;;;;;;;;;6.70;99.90;;;;;;5089034;28;19915;-80
2020/12/01 05:02:36;;;;;;;;;;;6.70;99.90;;;;;;5090171;28;20004;-81
2020/12/01 05:05:25;;;;;;;;;;;6.70;99.90;;;;;;5098663;28;20283;-80
2020/12/01 05:08:14;;;;;;;;;;;6.70;99.90;;;;;;5083639;28;19916;-80
2020/12/01 05:10:41;;;;;;;;;;;6.70;99.90;;;;;;5098025;28;19920;-80
2020/12/01 05:13:24;;;;;;;;;;;6.70;99.90;;;;;;5098278;28;19912;-80
2020/12/01 05:15:52;;;;;;;;;;;6.70;99.90;;;;;;5082603;28;19912;-80
2020/12/01 05:18:20;;;;;;;;;;;6.70;99.90;;;;;;5081565;28;20364;-80
2020/12/01 05:20:51;;;;;;;;;;;6.70;99.90;;;;;;5097959;28;19978;-81
2020/12/01 05:23:18;;;;;;;;;;;6.70;99.90;;;;;;5097744;28;19919;-81
2020/12/01 05:25:43;;;;;;;;;;;6.70;99.90;;;;;;5097586;28;19912;-80
2020/12/01 05:28:17;;;;;;;;;;;6.70;99.90;;;;;;5098920;28;20042;-80
2020/12/01 05:30:43;;;;;;;;;;;6.70;99.90;;;;;;5097556;28;20491;-81
2020/12/01 05:33:28;;;;;;;;;;;6.70;99.90;;;;;;5097669;28;19951;-81
2020/12/01 05:35:56;;;;;;;;;;;6.70;99.90;;;;;;5097911;28;19912;-80
2020/12/01 05:38:22;;;;;;;;;;;6.70;99.90;;;;;;5081074;28;19908;-80
2020/12/01 05:40:49;;;;;;;;;;;6.70;99.90;;;;;;5079687;28;19912;-80
2020/12/01 05:43:29;;;;;;;;;;;6.70;99.90;;;;;;5097489;28;19912;-80
2020/12/01 05:46:14;;;;;;;;;;;6.80;99.90;;;;;;5097763;28;19923;-81
2020/12/01 05:48:44;;;;;;;;;;;6.80;99.90;;;;;;5096962;28;19917;-80
2020/12/01 05:51:13;;;;;;;;;;;6.80;99.90;;;;;;5098186;28;19916;-80
2020/12/01 05:53:39;;;;;;;;;;;6.80;99.90;;;;;;5097333;28;19919;-80
2020/12/01 05:56:10;;;;;;;;;;;6.80;99.90;;;;;;5079423;28;19922;-80
2020/12/01 05:58:40;;;;;;;;;;;6.90;99.90;;;;;;5097380;28;19924;-81
2020/12/01 06:01:07;;;;;;;;;;;6.90;99.90;;;;;;5080423;28;19908;-80
2020/12/01 06:03:36;;;;;;;;;;;6.90;99.90;;;;;;5097338;28;19912;-80
2020/12/01 06:06:03;;;;;;;;;;;6.90;99.90;;;;;;5080006;28;20299;-81
2020/12/01 06:08:31;;;;;;;;;;;6.90;99.90;;;;;;5093942;28;19912;-80
2020/12/01 06:11:02;;;;;;;;;;;7.00;99.90;;;;;;5081015;28;19957;-80
2020/12/01 06:13:29;;;;;;;;;;;7.00;99.90;;;;;;5098921;28;19944;-80
2020/12/01 06:16:00;;;;;;;;;;;7.00;99.90;;;;;;5081411;28;19912;-80
2020/12/01 06:18:30;;;;;;;;;;;7.00;99.90;;;;;;5096927;28;19912;-80
2020/12/01 06:21:01;;;;;;;;;;;7.00;99.90;;;;;;5079979;28;20291;-80
2020/12/01 06:23:26;;;;;;;;;;;7.00;99.90;;;;;;5079662;28;19913;-80
2020/12/01 06:26:11;;;;;;;;;;;7.00;99.90;;;;;;5080176;28;19915;-80
2020/12/01 06:28:39;;;;;;;;;;;7.00;99.90;;;;;;5097659;28;19944;-81
2020/12/01 06:31:04;;;;;;;;;;;7.00;99.90;;;;;;5098920;28;20144;-80
2020/12/01 06:33:45;;;;;;;;;;;7.10;99.90;;;;;;5080296;28;19947;-80
2020/12/01 06:36:29;;;;;;;;;;;7.10;99.90;;;;;;5064478;28;20017;-80
2020/12/01 06:39:14;;;;;;;;;;;7.10;99.90;;;;;;5075603;28;20460;-80
2020/12/01 06:41:43;;;;;;;;;;;7.10;99.90;;;;;;5098361;28;19908;-80
2020/12/01 06:44:12;;;;;;;;;;;7.10;99.90;;;;;;5078782;28;19912;-80
2020/12/01 06:46:43;;;;;;;;;;;7.10;99.90;;;;;;5080256;28;19914;-81
2020/12/01 06:49:10;;;;;;;;;;;7.10;99.90;;;;;;5079257;28;19962;-82
2020/12/01 06:51:36;;;;;;;;;;;7.20;99.90;;;;;;5078726;28;19922;-81
2020/12/01 06:54:06;;;;;;;;;;;7.20;99.90;;;;;;5097786;28;19912;-81
2020/12/01 06:56:31;;;;;;;;;;;7.30;99.90;;;;;;5078706;28;19916;-81
2020/12/01 06:59:06;;;;;;;;;;;7.40;99.90;;;;;;5097195;28;19916;-81
2020/12/01 07:01:32;;;;;;;;;;;7.40;99.90;;;;;;5079101;28;19937;-81
2020/12/01 07:04:04;;;;;;;;;;;7.40;99.90;;;;;;5080483;28;20374;-81
2020/12/01 07:06:29;;;;;;;;;;;7.40;99.90;;;;;;5084739;28;19957;-81
2020/12/01 07:09:13;;;;;;;;;;;7.40;99.90;;;;;;5096476;28;19912;-81
2020/12/01 07:11:47;;;;;;;;;;;7.40;99.90;;;;;;5095770;28;19916;-81
2020/12/01 07:14:36;;;;;;;;;;;7.40;99.90;;;;;;5079847;28;20385;-81
2020/12/01 07:17:12;;;;;;;;;;;7.40;99.90;;;;;;5096216;28;19916;-81
2020/12/01 07:19:41;;;;;;;;;;;7.40;99.90;;;;;;5097664;28;20351;-81
2020/12/01 07:22:10;;;;;;;;;;;7.40;99.90;;;;;;5096220;28;19919;-82
2020/12/01 07:24:51;;;;;;;;;;;7.40;99.90;;;;;;5097224;28;19991;-81
2020/12/01 07:27:23;;;;;;;;;;;7.40;99.90;;;;;;5076294;28;19912;-80
2020/12/01 07:29:57;;;;;;;;;;;7.40;99.90;;;;;;5093515;28;19957;-81
2020/12/01 07:32:25;;;;;;;;;;;7.40;99.90;;;;;;5081578;28;20006;-81
2020/12/01 07:35:02;;;;;;;;;;;7.40;99.90;;;;;;5066954;28;19982;-80
2020/12/01 07:37:37;;;;;;;;;;;7.40;99.90;;;;;;5094182;28;20376;-81
2020/12/01 07:40:07;;;;;;;;;;;7.40;99.90;;;;;;5082075;28;19964;-81
2020/12/01 07:42:36;;;;;;;;;;;7.40;99.90;;;;;;5098970;28;19916;-81
2020/12/01 07:45:13;;;;;;;;;;;7.40;99.90;;;;;;5099539;28;19908;-81
2020/12/01 07:47:38;;;;;;;;;;;7.50;99.90;;;;;;5088276;28;20005;-81
2020/12/01 07:50:06;;;;;;;;;;;7.50;99.90;;;;;;5092988;28;19911;-81
2020/12/01 07:52:33;;;;;;;;;;;7.50;99.90;;;;;;5098892;28;20375;-82
2020/12/01 07:55:05;;;;;;;;;;;7.40;99.90;;;;;;5081748;28;19912;-82
2020/12/01 07:57:30;;;;;;;;;;;7.40;99.90;;;;;;5103047;28;20152;-81
2020/12/01 07:59:57;;;;;;;;;;;7.40;99.90;;;;;;5084849;28;19912;-81
2020/12/01 08:02:24;;;;;;;;;;;7.40;99.90;;;;;;5100860;28;19920;-81
2020/12/01 08:05:16;;;;;;;;;;;7.50;99.90;;;;;;5096723;28;19920;-81
2020/12/01 08:07:52;;;;;;;;;;;7.50;99.90;;;;;;5095672;28;19943;-80
2020/12/01 08:10:17;;;;;;;;;;;7.50;99.90;;;;;;5098955;28;19913;-81
2020/12/01 08:12:45;;;;;;;;;;;7.60;99.90;;;;;;5096447;28;20015;-81
2020/12/01 08:15:16;;;;;;;;;;;7.60;99.90;;;;;;5080344;28;20411;-80
2020/12/01 08:17:42;;;;;;;;;;;7.70;99.90;;;;;;5084951;28;19916;-81
2020/12/01 08:20:10;;;;;;;;;;;7.80;99.90;;;;;;5081731;28;19912;-81
2020/12/01 08:22:37;;;;;;;;;;;7.80;99.90;;;;;;5099312;28;19912;-81
2020/12/01 08:25:04;;;;;;;;;;;8.00;99.90;;;;;;5097810;28;19912;-81
2020/12/01 08:27:36;;;;;;;;;;;8.10;99.90;;;;;;5081456;28;19918;-80
2020/12/01 08:30:03;;;;;;;;;;;8.10;99.90;;;;;;5094975;28;19912;-81
2020/12/01 08:32:35;;;;;;;;;;;8.10;99.90;;;;;;5078458;28;20407;-80
2020/12/01 08:35:19;;;;;;;;;;;8.10;99.90;;;;;;5098949;28;19919;-81
2020/12/01 08:37:47;;;;;;;;;;;8.20;99.90;;;;;;5094985;28;19919;-81
2020/12/01 08:40:31;;;;;;;;;;;8.20;99.90;;;;;;5096753;28;19920;-81
2020/12/01 08:43:23;;;;;;;;;;;8.30;99.90;;;;;;5080106;28;19909;-81
2020/12/01 08:46:01;;;;;;;;;;;8.50;99.90;;;;;;5030559;28;19913;-81
2020/12/01 08:48:27;;;;;;;;;;;8.60;99.90;;;;;;5063639;28;19912;-81
2020/12/01 08:51:02;;;;;;;;;;;8.70;99.90;;;;;;5080558;28;19923;-81
2020/12/01 08:53:28;;;;;;;;;;;8.80;99.90;;;;;;5076918;28;19946;-81
2020/12/01 08:55:55;;;;;;;;;;;8.70;99.90;;;;;;5080635;28;19908;-81
2020/12/01 08:58:39;;;;;;;;;;;8.70;99.90;;;;;;5099166;28;19965;-80
2020/12/01 09:01:04;;;;;;;;;;;8.60;99.90;;;;;;5079147;28;19919;-81
2020/12/01 09:03:31;;;;;;;;;;;8.60;99.90;;;;;;5081288;28;19916;-81
2020/12/01 09:05:57;;;;;;;;;;;8.70;99.90;;;;;;5098630;28;19912;-81
2020/12/01 09:14:04;;;;;;;;;;;8.90;99.90;;;;;;5094869;28;19916;-81
2020/12/01 09:19:21;;;;;;;;;;;9.20;99.90;;;;;;5095166;28;19912;-81
2020/12/01 09:21:58;;;;;;;;;;;9.40;99.90;;;;;;5095332;28;19920;-81
2020/12/01 09:24:28;;;;;;;;;;;9.50;99.90;;;;;;5096686;28;19912;-81
2020/12/01 09:26:59;;;;;;;;;;;9.60;99.90;;;;;;5095190;28;19916;-81
2020/12/01 09:29:25;;;;;;;;;;;9.60;99.90;;;;;;5097629;28;19912;-82
2020/12/01 09:31:50;;;;;;;;;;;9.60;99.90;;;;;;5073401;28;20003;-81
2020/12/01 09:34:15;;;;;;;;;;;9.60;99.90;;;;;;5078635;28;19908;-81
2020/12/01 09:36:41;;;;;;;;;;;9.60;99.90;;;;;;5074898;28;19975;-81
2020/12/01 09:39:06;;;;;;;;;;;9.70;99.90;;;;;;5089903;28;19912;-81
2020/12/01 09:41:32;;;;;;;;;;;9.90;99.90;;;;;;5093652;28;19912;-81
2020/12/01 09:44:04;;;;;;;;;;;10.20;99.90;;;;;;5097954;28;19947;-81
2020/12/01 09:46:42;;;;;;;;;;;10.40;99.90;;;;;;5080251;28;20283;-81
2020/12/01 09:49:07;;;;;;;;;;;10.40;99.90;;;;;;5098811;28;19957;-81
2020/12/01 09:52:04;;;;;;;;;;;10.20;99.90;;;;;;5098873;28;20010;-81
2020/12/01 09:58:10;;;;;;;;;;;10.20;99.90;;;;;;5060184;28;19916;-81
2020/12/01 10:09:25;;;;;;;;;;;10.00;99.90;;;;;;5097805;28;19941;-81
2020/12/01 10:17:29;;;;;;;;;;;9.90;99.90;;;;;;5098095;28;19933;-81
2020/12/01 10:35:23;;;;;;;;;;;9.90;99.90;;;;;;5086919;28;19919;-81
2020/12/01 10:37:49;;;;;;;;;;;9.80;99.90;;;;;;5096543;28;19908;-80
2020/12/01 10:40:15;;;;;;;;;;;9.70;99.90;;;;;;5096643;28;20355;-81
2020/12/01 10:42:40;;;;;;;;;;;9.60;99.90;;;;;;5078511;28;19958;-81
2020/12/01 10:45:06;;;;;;;;;;;9.50;99.90;;;;;;5077504;28;20446;-81
2020/12/01 10:47:31;;;;;;;;;;;9.40;99.90;;;;;;5078841;28;19908;-81
2020/12/01 10:49:57;;;;;;;;;;;9.40;99.90;;;;;;5073064;28;20496;-81
2020/12/01 10:52:22;;;;;;;;;;;9.20;99.90;;;;;;5095529;28;19912;-81
2020/12/01 10:54:47;;;;;;;;;;;9.20;99.90;;;;;;5092256;28;19912;-82
2020/12/01 10:57:13;;;;;;;;;;;9.20;99.90;;;;;;5096345;28;20424;-80
2020/12/01 10:59:38;;;;;;;;;;;9.10;99.90;;;;;;5075938;28;19935;-80
2020/12/01 11:02:04;;;;;;;;;;;9.00;99.90;;;;;;5096160;28;19909;-81
2020/12/01 11:04:29;;;;;;;;;;;9.00;99.90;;;;;;5087352;28;19919;-81
2020/12/01 11:06:55;;;;;;;;;;;8.90;99.90;;;;;;5082689;28;20019;-80
2020/12/01 11:09:23;;;;;;;;;;;8.90;99.90;;;;;;5085424;28;19923;-80
2020/12/01 11:11:48;;;;;;;;;;;8.90;99.90;;;;;;5073901;28;19939;-81
2020/12/01 11:14:14;;;;;;;;;;;9.00;99.90;;;;;;5093005;28;19908;-81
2020/12/01 11:16:39;;;;;;;;;;;9.00;99.90;;;;;;5095713;28;19912;-81
2020/12/01 11:19:05;;;;;;;;;;;9.10;99.90;;;;;;5093706;28;20338;-79
2020/12/01 11:21:33;;;;;;;;;;;9.10;99.90;;;;;;5092455;28;19916;-83
2020/12/01 11:23:58;;;;;;;;;;;9.20;99.90;;;;;;5084011;28;19915;-81
2020/12/01 11:26:24;;;;;;;;;;;9.20;99.90;;;;;;5084140;28;19912;-81
2020/12/01 11:28:50;;;;;;;;;;;9.30;99.90;;;;;;5102632;28;19908;-81
2020/12/01 11:31:19;;;;;;;;;;;9.40;99.90;;;;;;5085441;28;19924;-82
2020/12/01 11:33:56;;;;;;;;;;;9.40;99.90;;;;;;5099894;28;20486;-81
2020/12/01 11:36:22;;;;;;;;;;;9.50;99.90;;;;;;5090094;28;19941;-82
2020/12/01 11:38:47;;;;;;;;;;;9.50;99.90;;;;;;5084661;28;20416;-81
2020/12/01 11:41:14;;;;;;;;;;;9.50;99.90;;;;;;5085115;28;19935;-82
2020/12/01 11:43:40;;;;;;;;;;;9.50;99.90;;;;;;5084568;28;19908;-82
2020/12/01 11:46:05;;;;;;;;;;;9.50;99.90;;;;;;5083222;28;19938;-82
2020/12/01 11:48:31;;;;;;;;;;;9.40;99.90;;;;;;5084217;28;19984;-81
2020/12/01 11:50:56;;;;;;;;;;;9.40;99.90;;;;;;5103172;28;19919;-81
2020/12/01 11:53:22;;;;;;;;;;;9.40;99.90;;;;;;5085200;28;19927;-81
2020/12/01 11:55:47;;;;;;;;;;;9.50;99.90;;;;;;5095078;28;19908;-82
2020/12/01 11:58:13;;;;;;;;;;;9.50;99.90;;;;;;5085099;28;20337;-82
2020/12/01 12:00:38;;;;;;;;;;;9.50;99.90;;;;;;5103285;28;19912;-82
2020/12/01 12:03:09;;;;;;;;;;;9.60;99.90;;;;;;5085391;28;19916;-81
2020/12/01 12:05:34;;;;;;;;;;;9.70;99.90;;;;;;5106636;28;19908;-81
2020/12/01 12:08:00;;;;;;;;;;;9.70;99.90;;;;;;5085819;28;19923;-82
2020/12/01 12:10:25;;;;;;;;;;;9.70;99.90;;;;;;5103281;28;19938;-82
2020/12/01 12:12:51;;;;;;;;;;;9.70;99.90;;;;;;5103543;28;19916;-82
2020/12/01 12:15:16;;;;;;;;;;;9.70;99.90;;;;;;5103335;28;19912;-81
2020/12/01 12:17:42;;;;;;;;;;;9.70;99.90;;;;;;5103702;28;19915;-81
2020/12/01 12:20:07;;;;;;;;;;;9.80;99.90;;;;;;5107066;28;19912;-81
2020/12/01 12:22:33;;;;;;;;;;;9.80;99.90;;;;;;5107812;28;19915;-81
2020/12/01 12:24:58;;;;;;;;;;;9.80;99.90;;;;;;5088707;28;20396;-81
2020/12/01 12:27:26;;;;;;;;;;;9.80;99.90;;;;;;5100166;28;19919;-81
2020/12/01 12:29:51;;;;;;;;;;;9.90;99.90;;;;;;5107722;28;20065;-81
2020/12/01 12:32:19;;;;;;;;;;;9.90;99.90;;;;;;5090769;28;19912;-81
2020/12/01 12:34:45;;;;;;;;;;;10.00;99.90;;;;;;5089839;28;19934;-81
2020/12/01 12:37:10;;;;;;;;;;;10.00;99.90;;;;;;5089737;28;19908;-81
2020/12/01 12:39:36;;;;;;;;;;;10.00;99.90;;;;;;5106055;28;19912;-81
2020/12/01 12:42:04;;;;;;;;;;;10.00;99.90;;;;;;5082380;28;19972;-82
2020/12/01 12:44:30;;;;;;;;;;;9.90;99.90;;;;;;5096761;28;19987;-82
2020/12/01 12:46:55;;;;;;;;;;;10.00;99.90;;;;;;5090687;28;19912;-82
2020/12/01 12:49:21;;;;;;;;;;;9.90;99.90;;;;;;5090046;28;19915;-82
2020/12/01 12:51:51;;;;;;;;;;;9.90;99.90;;;;;;5108535;28;19912;-82
2020/12/01 12:54:16;;;;;;;;;;;9.80;99.90;;;;;;5106905;28;19908;-82
2020/12/01 12:56:42;;;;;;;;;;;9.80;99.90;;;;;;5102846;28;19912;-82
2020/12/01 12:59:07;;;;;;;;;;;9.80;99.90;;;;;;5085196;28;19970;-82
2020/12/01 13:01:33;;;;;;;;;;;9.80;99.90;;;;;;5103279;28;19956;-82
2020/12/01 13:03:58;;;;;;;;;;;9.70;99.90;;;;;;5103128;28;20007;-82
2020/12/01 13:06:24;;;;;;;;;;;9.70;99.90;;;;;;5097048;28;19999;-82
2020/12/01 13:08:49;;;;;;;;;;;9.70;99.90;;;;;;5101251;28;19931;-81
2020/12/01 13:11:15;;;;;;;;;;;9.70;99.90;;;;;;5081913;28;19916;-81
2020/12/01 13:13:41;;;;;;;;;;;9.60;99.90;;;;;;5083136;28;19959;-82
2020/12/01 13:16:07;;;;;;;;;;;9.60;99.90;;;;;;5084863;28;19915;-82
2020/12/01 13:18:32;;;;;;;;;;;9.60;99.90;;;;;;5085681;28;20429;-82
2020/12/01 13:20:58;;;;;;;;;;;9.60;99.90;;;;;;5082477;28;19912;-82
2020/12/01 13:23:23;;;;;;;;;;;9.70;99.90;;;;;;5100171;28;19908;-83
2020/12/01 13:25:49;;;;;;;;;;;9.70;99.90;;;;;;5082597;28;19912;-83
2020/12/01 13:28:14;;;;;;;;;;;9.70;99.90;;;;;;5100016;28;19908;-83
2020/12/01 13:30:40;;;;;;;;;;;9.60;99.90;;;;;;5079284;28;19934;-82
2020/12/01 13:33:05;;;;;;;;;;;9.60;99.90;;;;;;5080274;28;19908;-83
2020/12/01 13:35:31;;;;;;;;;;;9.60;99.90;;;;;;5080232;28;19913;-82
2020/12/01 13:37:56;;;;;;;;;;;9.60;99.90;;;;;;5069352;28;19955;-82
2020/12/01 13:40:23;;;;;;;;;;;9.60;99.90;;;;;;5075784;28;19920;-82
2020/12/01 13:42:48;;;;;;;;;;;9.60;99.90;;;;;;5079035;28;19909;-83
2020/12/01 13:45:14;;;;;;;;;;;9.60;99.90;;;;;;5082211;28;19943;-82
2020/12/01 13:47:42;;;;;;;;;;;9.60;99.90;;;;;;5099461;28;19916;-82
2020/12/01 13:50:08;;;;;;;;;;;9.60;99.90;;;;;;5099138;28;19912;-83
2020/12/01 13:52:35;;;;;;;;;;;9.60;99.90;;;;;;5102295;28;19912;-83
2020/12/01 13:55:03;;;;;;;;;;;9.60;99.90;;;;;;5097358;28;19909;-83
2020/12/01 13:57:28;;;;;;;;;;;9.60;99.90;;;;;;5080167;28;19912;-83
2020/12/01 13:59:54;;;;;;;;;;;9.60;99.90;;;;;;5076430;28;19919;-82
2020/12/01 14:02:19;;;;;;;;;;;9.60;99.90;;;;;;5081528;28;19912;-82
2020/12/01 14:04:45;;;;;;;;;;;9.60;99.90;;;;;;5099402;28;19908;-82
2020/12/01 14:07:10;;;;;;;;;;;9.60;99.90;;;;;;5081891;28;20419;-82
2020/12/01 14:09:36;;;;;;;;;;;9.60;99.90;;;;;;5094369;28;19917;-82
2020/12/01 14:12:01;;;;;;;;;;;9.60;99.90;;;;;;5077313;28;19917;-82
2020/12/01 14:14:27;;;;;;;;;;;9.60;99.90;;;;;;5070365;28;19975;-84
2020/12/01 14:16:52;;;;;;;;;;;9.60;99.90;;;;;;5092785;28;20269;-82
2020/12/01 14:19:18;;;;;;;;;;;9.50;99.90;;;;;;5081028;28;19951;-83
2020/12/01 14:21:43;;;;;;;;;;;9.50;99.90;;;;;;5087930;28;19935;-82
2020/12/01 14:24:09;;;;;;;;;;;9.50;99.90;;;;;;5100400;28;19940;-83
2020/12/01 14:26:34;;;;;;;;;;;9.50;99.90;;;;;;5100064;28;20410;-82
2020/12/01 14:29:00;;;;;;;;;;;9.40;99.90;;;;;;5099711;28;19920;-82
2020/12/01 14:31:26;;;;;;;;;;;9.40;99.90;;;;;;5099929;28;19916;-82
2020/12/01 14:33:51;;;;;;;;;;;9.40;99.90;;;;;;5086642;28;19979;-82
2020/12/01 14:36:18;;;;;;;;;;;9.40;99.90;;;;;;5084788;28;19916;-81
2020/12/01 14:38:44;;;;;;;;;;;9.40;99.90;;;;;;5081478;28;19954;-82
2020/12/01 14:41:13;;;;;;;;;;;9.40;99.90;;;;;;5093136;28;19912;-81
2020/12/01 14:43:40;;;;;;;;;;;9.30;99.90;;;;;;5074987;28;20296;-82
2020/12/01 14:46:07;;;;;;;;;;;9.30;99.90;;;;;;5062246;28;19919;-81
2020/12/01 14:48:45;;;;;;;;;;;9.30;99.90;;;;;;5074340;28;19912;-81
2020/12/01 14:51:14;;;;;;;;;;;9.30;99.90;;;;;;5097241;28;19959;-81
2020/12/01 14:53:39;;;;;;;;;;;9.30;99.90;;;;;;5100690;28;19912;-80
2020/12/01 14:56:05;;;;;;;;;;;9.30;99.90;;;;;;5099076;28;19918;-82
2020/12/01 14:58:33;;;;;;;;;;;9.30;99.90;;;;;;5100823;28;19961;-82
2020/12/01 15:01:10;;;;;;;;;;;9.30;99.90;;;;;;5086175;28;19920;-81
2020/12/01 15:03:57;;;;;;;;;;;9.30;99.90;;;;;;5086870;28;19908;-81
2020/12/01 15:06:37;;;;;;;;;;;9.30;99.90;;;;;;5086039;28;19916;-81
2020/12/01 15:09:21;;;;;;;;;;;9.30;99.90;;;;;;5069282;28;19908;-81
2020/12/01 15:11:56;;;;;;;;;;;9.20;99.90;;;;;;5096975;28;19923;-82
2020/12/01 15:14:22;;;;;;;;;;;9.20;99.90;;;;;;5081541;28;19908;-82
2020/12/01 15:16:57;;;;;;;;;;;9.20;99.90;;;;;;5097280;28;19923;-82
2020/12/01 15:19:22;;;;;;;;;;;9.20;99.90;;;;;;5083398;28;19995;-82